Terminal Aerodrome Forecast
Issued by NWS

Home | Current Version | Previous Version | Text Only | Print | Product List | Glossary On
Versions: 1 2 3 4 5 6 7 8 9 10 11 12
000
FTUS44 KSJT 300520
TAFBBD
TAF
KBBD 300520Z 3006/0106 32019G29KT P6SM OVC070
     FM300800 33014G22KT P6SM SCT060
     FM301500 30017G26KT P6SM SKC
     FM010200 35005KT P6SM SKC
      AMD NOT SKED=

USA.gov is the U.S. government's official web portal to all federal, state and local government web resources and services.